Time;durP1;ratioP1;P1;durP2;ratioP2;P2;SDS_P1;SDS_P2;PMS_P1;PMS_P2;Temp;Humidity;BMP_temperature;BMP_pressure;BME280_temperature;BME280_humidity;BME280_pressure;Samples;Min_cycle;Max_cycle;Signal;HPM_P1;HPM_P2
2022/01/25 00:08:54;;;;;;;32.53;19.47;;;5.30;99.90;;;;;;5081917;28;20682;-58
2022/01/25 00:32:07;;;;;;;35.73;22.37;;;5.40;99.90;;;;;;5079370;28;20670;-57
2022/01/25 00:34:35;;;;;;;35.00;22.37;;;5.40;99.90;;;;;;5078667;28;20206;-58
2022/01/25 00:37:02;;;;;;;35.63;22.33;;;5.50;99.90;;;;;;5080695;28;20200;-59
2022/01/25 00:39:29;;;;;;;32.77;21.70;;;5.50;99.90;;;;;;5079726;28;20199;-63
2022/01/25 00:41:57;;;;;;;35.77;21.13;;;5.50;99.90;;;;;;5080076;28;20210;-58
2022/01/25 00:44:25;;;;;;;34.93;22.23;;;5.60;99.90;;;;;;5076188;28;20199;-58
2022/01/25 00:46:51;;;;;;;33.70;21.70;;;5.50;99.90;;;;;;5053848;28;20772;-58
2022/01/25 00:49:27;;;;;;;39.77;23.63;;;5.50;99.90;;;;;;5077164;28;20202;-57
2022/01/25 00:56:50;;;;;;;38.40;22.93;;;5.50;99.90;;;;;;5075335;28;20559;-58
2022/01/25 00:59:20;;;;;;;36.03;22.53;;;5.50;99.90;;;;;;5072473;28;20203;-58
2022/01/25 01:01:49;;;;;;;35.47;23.07;;;5.50;99.90;;;;;;5079707;28;20215;-57
2022/01/25 01:04:18;;;;;;;36.70;22.53;;;5.40;99.90;;;;;;5071963;28;20215;-60
2022/01/25 01:06:46;;;;;;;35.60;22.67;;;5.40;99.90;;;;;;5057464;28;20253;-57
2022/01/25 01:09:16;;;;;;;33.17;21.00;;;5.50;99.90;;;;;;5078415;28;20284;-57
2022/01/25 01:12:08;;;;;;;33.70;21.73;;;5.60;99.90;;;;;;5077202;28;20225;-58
2022/01/25 01:29:02;;;;;;;33.30;21.63;;;5.50;99.90;;;;;;5074902;28;20286;-56
2022/01/25 01:31:02;;;;;;;33.57;22.43;;;5.60;99.90;;;;;;5078283;28;20283;-58
2022/01/25 01:44:03;;;;;;;36.13;22.23;;;5.50;99.90;;;;;;5074451;28;20228;-58
2022/01/25 01:46:40;;;;;;;34.80;21.90;;;5.50;99.90;;;;;;5076600;28;20200;-57
2022/01/25 01:49:10;;;;;;;34.70;22.83;;;5.50;99.90;;;;;;5075027;28;20209;-57
2022/01/25 01:51:42;;;;;;;34.70;22.17;;;5.60;99.90;;;;;;5078827;28;20218;-60
2022/01/25 01:54:11;;;;;;;36.83;22.80;;;5.50;99.90;;;;;;5074980;28;20230;-57
2022/01/25 01:56:40;;;;;;;36.60;22.23;;;5.60;99.90;;;;;;5075977;28;20186;-58
2022/01/25 01:59:13;;;;;;;34.07;22.20;;;5.60;99.90;;;;;;5077682;28;20275;-58
2022/01/25 02:01:43;;;;;;;35.00;22.13;;;5.50;99.90;;;;;;5074004;28;20218;-58
2022/01/25 02:04:11;;;;;;;37.03;24.07;;;5.50;99.90;;;;;;5072488;28;20204;-59
2022/01/25 02:06:38;;;;;;;32.97;21.47;;;5.50;99.90;;;;;;5074496;28;20633;-58
2022/01/25 02:09:06;;;;;;;32.80;20.87;;;5.50;99.90;;;;;;5053956;28;20226;-59
2022/01/25 02:11:34;;;;;;;36.17;22.23;;;5.50;99.90;;;;;;5060178;28;20207;-59
2022/01/25 02:14:05;;;;;;;33.83;21.90;;;5.50;99.90;;;;;;5075702;28;20706;-58
2022/01/25 02:24:37;;;;;;;33.20;22.33;;;5.60;99.90;;;;;;5073271;28;20267;-58
2022/01/25 02:27:04;;;;;;;37.47;23.10;;;5.50;99.90;;;;;;5071783;28;20234;-58
2022/01/25 02:29:32;;;;;;;35.43;22.87;;;5.50;99.90;;;;;;5073954;28;21573;-56
2022/01/25 02:31:59;;;;;;;36.43;23.67;;;5.50;99.90;;;;;;5057947;28;20250;-58
2022/01/25 02:34:26;;;;;;;37.20;23.90;;;5.40;99.90;;;;;;5070521;28;20739;-57
2022/01/25 02:36:58;;;;;;;42.27;23.30;;;5.50;99.90;;;;;;5073959;28;20637;-58
2022/01/25 02:39:26;;;;;;;37.53;22.57;;;5.50;99.90;;;;;;5069685;28;20199;-58
2022/01/25 02:41:53;;;;;;;33.03;21.67;;;5.60;99.90;;;;;;5071502;28;20665;-58
2022/01/25 02:44:25;;;;;;;33.97;21.97;;;5.60;99.90;;;;;;5073149;28;20655;-58
2022/01/25 02:49:20;;;;;;;38.20;23.60;;;5.60;99.90;;;;;;5073824;28;20682;-56
2022/01/25 02:51:48;;;;;;;36.57;24.47;;;5.60;99.90;;;;;;5078862;28;20631;-58
2022/01/25 02:54:16;;;;;;;35.53;22.37;;;5.60;99.90;;;;;;5078535;28;20728;-58
2022/01/25 02:56:44;;;;;;;37.47;23.30;;;5.50;99.90;;;;;;5077426;28;20647;-58
2022/01/25 02:59:14;;;;;;;38.37;23.83;;;5.50;99.90;;;;;;5079483;28;20670;-58
2022/01/25 03:01:42;;;;;;;35.47;23.10;;;5.40;99.90;;;;;;5075957;28;20764;-58
2022/01/25 03:04:11;;;;;;;39.53;23.97;;;5.40;99.90;;;;;;5073871;28;20218;-57
2022/01/25 03:06:39;;;;;;;38.40;22.80;;;5.50;99.90;;;;;;5078787;28;20214;-58
2022/01/25 03:09:06;;;;;;;37.87;22.03;;;5.50;99.90;;;;;;5082902;28;20258;-58
2022/01/25 03:11:34;;;;;;;35.13;22.83;;;5.50;99.90;;;;;;5081292;28;20215;-59
2022/01/25 03:14:04;;;;;;;37.07;23.23;;;5.50;99.90;;;;;;5079775;28;20220;-56
2022/01/25 03:16:44;;;;;;;39.30;24.73;;;5.10;99.90;;;;;;5077030;28;20711;-58
2022/01/25 03:22:00;;;;;;;44.57;25.63;;;5.40;99.90;;;;;;5076468;28;20222;-57
2022/01/25 03:24:27;;;;;;;41.53;25.23;;;5.50;99.90;;;;;;5078323;28;20214;-58
2022/01/25 03:26:54;;;;;;;38.00;24.30;;;5.50;99.90;;;;;;5059546;28;20199;-59
2022/01/25 03:29:21;;;;;;;40.80;26.23;;;5.60;99.90;;;;;;5076820;28;20749;-59
2022/01/25 03:31:48;;;;;;;44.60;25.07;;;5.50;99.90;;;;;;5079792;28;20238;-57
2022/01/25 03:34:16;;;;;;;40.37;24.53;;;5.50;99.90;;;;;;5076694;28;20528;-58
2022/01/25 03:36:43;;;;;;;42.57;24.60;;;5.60;99.90;;;;;;5075205;28;20290;-58
2022/01/25 03:39:10;;;;;;;39.97;25.70;;;5.50;99.90;;;;;;5059194;28;20609;-57
2022/01/25 03:41:37;;;;;;;42.23;24.47;;;5.60;99.90;;;;;;5077009;28;20207;-57
2022/01/25 03:44:04;;;;;;;40.03;24.70;;;5.80;99.90;;;;;;5074379;28;20294;-56
2022/01/25 03:47:01;;;;;;;39.40;24.63;;;5.80;99.90;;;;;;5074650;28;20214;-57
2022/01/25 03:52:08;;;;;;;41.57;25.57;;;5.60;99.90;;;;;;5077193;28;20209;-57
2022/01/25 03:54:36;;;;;;;40.93;24.30;;;5.60;99.90;;;;;;5079283;28;20236;-57
2022/01/25 03:57:03;;;;;;;37.43;23.43;;;5.60;99.90;;;;;;5073825;28;20218;-57
2022/01/25 03:59:30;;;;;;;41.90;25.60;;;5.60;99.90;;;;;;5074633;28;20687;-59
2022/01/25 04:01:57;;;;;;;42.67;24.40;;;5.60;99.90;;;;;;5079079;28;20665;-57
2022/01/25 04:04:26;;;;;;;42.23;24.20;;;5.60;99.90;;;;;;5075235;28;20255;-56
2022/01/25 04:06:54;;;;;;;45.97;26.17;;;5.60;99.90;;;;;;5075883;28;20275;-57
2022/01/25 04:09:21;;;;;;;47.43;27.77;;;5.60;99.90;;;;;;5076163;28;20703;-57
2022/01/25 04:11:49;;;;;;;40.73;25.03;;;5.40;99.90;;;;;;5059237;28;20210;-57
2022/01/25 04:14:16;;;;;;;41.03;24.53;;;5.50;99.90;;;;;;5078111;28;20205;-57
2022/01/25 04:17:03;;;;;;;38.90;23.50;;;5.50;99.90;;;;;;5074962;28;20581;-58
2022/01/25 04:27:07;;;;;;;42.23;25.87;;;5.50;99.90;;;;;;5076420;28;20631;-58
2022/01/25 04:29:34;;;;;;;46.40;25.53;;;5.60;99.90;;;;;;5077355;28;20625;-57
2022/01/25 04:32:01;;;;;;;44.10;27.03;;;5.70;99.90;;;;;;5078973;28;20252;-59
2022/01/25 04:53:55;;;;;;;41.47;25.70;;;5.60;99.90;;;;;;5036929;28;20323;-58
2022/01/25 04:56:30;;;;;;;37.47;22.93;;;5.70;99.90;;;;;;5062786;28;20317;-58
2022/01/25 04:59:06;;;;;;;45.00;26.93;;;5.60;99.90;;;;;;5077821;28;20210;-58
2022/01/25 05:01:34;;;;;;;41.07;24.43;;;5.70;99.90;;;;;;5077206;28;20231;-57
2022/01/25 05:04:17;;;;;;;40.77;23.97;;;5.50;99.90;;;;;;5073143;28;20242;-58
2022/01/25 05:06:46;;;;;;;42.10;24.37;;;5.50;99.90;;;;;;5057441;28;20206;-57
2022/01/25 05:09:15;;;;;;;44.30;26.17;;;5.60;99.90;;;;;;5076844;28;20613;-58
2022/01/25 05:11:46;;;;;;;41.73;26.13;;;5.80;99.90;;;;;;5076628;28;20230;-57
2022/01/25 05:19:25;;;;;;;39.27;23.63;;;5.60;99.90;;;;;;5075010;28;20306;-58
2022/01/25 05:24:41;;;;;;;41.83;24.30;;;5.80;99.90;;;;;;5074573;28;20265;-58
2022/01/25 05:27:11;;;;;;;39.30;24.50;;;5.70;99.90;;;;;;5073907;28;20312;-57
2022/01/25 05:29:39;;;;;;;44.17;24.80;;;5.70;99.90;;;;;;5073894;28;20212;-57
2022/01/25 05:32:06;;;;;;;45.07;25.57;;;5.70;99.90;;;;;;5056458;28;20210;-58
2022/01/25 05:34:35;;;;;;;46.17;25.93;;;5.60;99.90;;;;;;5056084;28;20198;-58
2022/01/25 05:37:03;;;;;;;45.00;25.93;;;5.60;99.90;;;;;;5076911;28;20299;-58
2022/01/25 05:39:33;;;;;;;46.03;23.87;;;5.60;99.90;;;;;;5074568;28;20872;-58
2022/01/25 05:42:21;;;;;;;44.10;25.57;;;5.60;99.90;;;;;;5076172;28;20212;-57
2022/01/25 05:47:26;;;;;;;50.67;27.60;;;5.50;99.90;;;;;;5078233;28;20198;-58
2022/01/25 05:49:53;;;;;;;46.00;27.70;;;5.60;99.90;;;;;;5056854;28;20210;-58
2022/01/25 05:52:20;;;;;;;48.73;28.47;;;5.60;99.90;;;;;;5077827;28;20208;-61
2022/01/25 05:54:48;;;;;;;48.40;27.67;;;5.60;99.90;;;;;;5074068;28;20354;-56
2022/01/25 05:57:15;;;;;;;48.47;27.10;;;5.60;99.90;;;;;;5077234;28;20394;-58
2022/01/25 05:59:43;;;;;;;54.50;28.37;;;5.60;99.90;;;;;;5074707;28;20264;-58
2022/01/25 06:02:10;;;;;;;51.53;29.10;;;5.60;99.90;;;;;;5074975;28;20209;-58
2022/01/25 06:04:37;;;;;;;50.07;28.43;;;5.40;99.90;;;;;;5076231;28;20690;-59
2022/01/25 06:07:04;;;;;;;50.87;27.47;;;5.60;99.90;;;;;;5060396;28;20238;-59
2022/01/25 06:09:31;;;;;;;52.83;29.00;;;5.60;99.90;;;;;;5075090;28;20294;-59
2022/01/25 06:11:58;;;;;;;51.67;30.57;;;5.60;99.90;;;;;;5076797;28;20239;-58
2022/01/25 06:14:24;;;;;;;47.37;27.30;;;5.50;99.90;;;;;;5076798;28;20233;-58
2022/01/25 06:16:51;;;;;;;48.37;28.17;;;5.60;99.90;;;;;;5075327;28;20204;-59
2022/01/25 06:19:18;;;;;;;52.50;28.37;;;5.70;99.90;;;;;;5074393;28;20225;-58
2022/01/25 06:21:45;;;;;;;51.77;29.77;;;5.70;99.90;;;;;;5075476;28;20297;-62
2022/01/25 06:24:12;;;;;;;61.77;30.93;;;5.70;99.90;;;;;;5057692;28;20209;-58
2022/01/25 06:26:39;;;;;;;54.87;31.13;;;5.60;99.90;;;;;;5079961;28;20205;-58
2022/01/25 06:29:05;;;;;;;55.77;30.60;;;5.70;99.90;;;;;;5080488;28;20306;-58
2022/01/25 06:31:32;;;;;;;54.20;29.63;;;5.60;99.90;;;;;;5081082;28;20285;-58
2022/01/25 06:34:00;;;;;;;53.80;29.43;;;5.60;99.90;;;;;;5079638;28;20620;-58
2022/01/25 06:36:27;;;;;;;53.63;28.27;;;5.60;99.90;;;;;;5080700;28;20214;-57
2022/01/25 06:38:54;;;;;;;53.43;29.77;;;5.60;99.90;;;;;;5078967;28;20382;-58
2022/01/25 06:41:25;;;;;;;54.30;30.13;;;5.60;99.90;;;;;;5080736;28;20214;-58
2022/01/25 06:43:52;;;;;;;54.10;29.60;;;5.60;99.90;;;;;;5077052;28;20304;-56
2022/01/25 06:46:19;;;;;;;61.70;32.97;;;5.70;99.90;;;;;;5081339;28;20376;-58
2022/01/25 06:48:46;;;;;;;60.23;31.93;;;5.70;99.90;;;;;;5076884;28;20201;-57
2022/01/25 06:51:13;;;;;;;54.00;30.97;;;5.70;99.90;;;;;;5078128;28;20213;-58
2022/01/25 06:53:40;;;;;;;58.77;31.63;;;5.70;99.90;;;;;;5080748;28;20260;-59
2022/01/25 06:56:07;;;;;;;60.27;32.33;;;5.80;99.90;;;;;;5082022;28;20226;-58
2022/01/25 06:58:34;;;;;;;59.73;30.67;;;5.80;99.90;;;;;;5082862;28;20198;-59
2022/01/25 07:01:02;;;;;;;60.43;31.40;;;5.80;99.90;;;;;;5077437;28;20210;-58
2022/01/25 07:03:29;;;;;;;55.50;30.83;;;5.70;99.90;;;;;;5083897;28;20325;-58
2022/01/25 07:05:56;;;;;;;63.33;32.77;;;5.80;99.90;;;;;;5080305;28;20210;-58
2022/01/25 07:08:23;;;;;;;61.00;33.70;;;5.70;99.90;;;;;;5084129;28;20671;-57
2022/01/25 07:10:52;;;;;;;63.37;33.73;;;5.60;99.90;;;;;;5084397;28;20258;-59
2022/01/25 07:13:19;;;;;;;55.50;31.80;;;5.60;99.90;;;;;;5083400;28;20214;-58
2022/01/25 07:15:46;;;;;;;62.33;32.60;;;5.60;99.90;;;;;;5084099;28;20205;-58
2022/01/25 07:18:15;;;;;;;60.50;32.43;;;5.60;99.90;;;;;;5083749;28;20203;-57
2022/01/25 07:20:42;;;;;;;63.17;33.67;;;5.50;99.90;;;;;;5065126;28;20272;-58
2022/01/25 07:23:12;;;;;;;65.63;33.17;;;5.60;99.90;;;;;;5079853;28;20556;-58
2022/01/25 07:25:39;;;;;;;69.07;33.63;;;5.70;99.90;;;;;;5075003;28;20206;-58
2022/01/25 07:28:06;;;;;;;65.90;34.13;;;5.70;99.90;;;;;;5074994;28;20207;-58
2022/01/25 07:30:33;;;;;;;61.93;32.80;;;5.70;99.90;;;;;;5078310;28;20299;-58
2022/01/25 07:33:05;;;;;;;63.83;32.57;;;5.70;99.90;;;;;;5071277;28;20247;-57
2022/01/25 07:35:36;;;;;;;61.23;32.57;;;5.80;99.90;;;;;;5070852;28;20292;-58
2022/01/25 07:38:03;;;;;;;65.80;34.10;;;5.70;99.90;;;;;;5076690;28;20674;-57
2022/01/25 07:40:31;;;;;;;73.57;36.43;;;5.60;99.90;;;;;;5075283;28;20191;-58
2022/01/25 07:43:01;;;;;;;66.43;34.10;;;5.60;99.90;;;;;;5076742;28;20932;-56
2022/01/25 07:45:34;;;;;;;68.13;35.13;;;5.70;99.90;;;;;;5073435;28;20209;-57
2022/01/25 07:48:06;;;;;;;66.40;33.90;;;5.70;99.90;;;;;;5074173;28;20206;-58
2022/01/25 07:50:34;;;;;;;66.67;35.00;;;5.80;99.90;;;;;;5078026;28;20542;-58
2022/01/25 07:53:04;;;;;;;68.97;34.67;;;5.80;99.90;;;;;;5071787;28;20260;-56
2022/01/25 07:55:32;;;;;;;67.00;35.03;;;5.80;99.90;;;;;;5074259;28;20285;-57
2022/01/25 07:57:58;;;;;;;66.37;34.00;;;5.70;99.90;;;;;;5071841;28;20226;-57
2022/01/25 08:00:25;;;;;;;64.87;34.10;;;5.80;99.90;;;;;;5075076;28;20196;-57
2022/01/25 08:02:53;;;;;;;72.60;36.67;;;5.70;99.90;;;;;;5056124;28;20307;-57
2022/01/25 08:05:24;;;;;;;80.57;38.03;;;5.70;99.90;;;;;;5064490;28;20679;-57
2022/01/25 08:07:54;;;;;;;70.67;35.57;;;5.70;99.90;;;;;;5067213;28;20212;-58
2022/01/25 08:10:25;;;;;;;71.00;36.70;;;5.80;99.90;;;;;;5071454;28;20231;-58
2022/01/25 08:13:01;;;;;;;75.30;36.30;;;5.80;99.90;;;;;;5073617;28;20687;-58
2022/01/25 08:15:30;;;;;;;71.73;35.63;;;5.80;99.90;;;;;;5056587;28;20285;-58
2022/01/25 08:17:56;;;;;;;70.33;37.53;;;5.70;99.90;;;;;;5074197;28;20539;-56
2022/01/25 08:20:34;;;;;;;72.73;36.13;;;5.80;99.90;;;;;;5069087;28;20215;-57
2022/01/25 08:23:01;;;;;;;77.17;39.27;;;5.70;99.90;;;;;;5071564;28;20218;-57
2022/01/25 08:25:37;;;;;;;73.83;36.07;;;5.70;99.90;;;;;;5070372;28;20511;-57
2022/01/25 08:28:08;;;;;;;74.10;37.93;;;5.80;99.90;;;;;;5075129;28;20216;-57
2022/01/25 08:30:35;;;;;;;76.43;38.33;;;5.70;99.90;;;;;;5058987;28;20255;-58
2022/01/25 08:33:13;;;;;;;72.80;38.67;;;5.60;99.90;;;;;;5071364;28;20305;-58
2022/01/25 08:35:45;;;;;;;78.00;36.53;;;5.60;99.90;;;;;;5073201;28;20237;-57
2022/01/25 08:38:23;;;;;;;72.77;36.97;;;5.70;99.90;;;;;;5069486;28;20664;-57
2022/01/25 08:40:58;;;;;;;74.63;37.10;;;5.70;99.90;;;;;;5069706;28;21023;-57
2022/01/25 08:43:33;;;;;;;69.30;36.50;;;5.80;99.90;;;;;;5057186;28;20872;-57
2022/01/25 08:46:05;;;;;;;75.00;38.90;;;5.70;99.90;;;;;;5070411;28;20611;-57
2022/01/25 08:48:35;;;;;;;69.90;36.00;;;5.70;99.90;;;;;;5068558;28;20288;-56
2022/01/25 08:51:19;;;;;;;77.77;36.20;;;5.80;99.90;;;;;;5073743;28;20281;-57
2022/01/25 08:53:50;;;;;;;71.77;37.20;;;5.80;99.90;;;;;;5062993;28;20323;-56
2022/01/25 08:56:17;;;;;;;72.90;35.90;;;5.80;99.90;;;;;;5057611;28;20204;-57
2022/01/25 08:58:45;;;;;;;72.33;36.43;;;5.80;99.90;;;;;;5036472;28;20205;-57
2022/01/25 09:01:12;;;;;;;72.77;37.87;;;5.80;99.90;;;;;;5053923;28;20237;-57
2022/01/25 09:03:39;;;;;;;76.33;37.73;;;5.70;99.90;;;;;;5053832;28;20291;-57
2022/01/25 09:06:08;;;;;;;75.53;37.50;;;5.80;99.90;;;;;;5033662;28;20289;-57
2022/01/25 09:08:35;;;;;;;71.70;37.30;;;5.90;99.90;;;;;;5055943;28;20659;-56
2022/01/25 09:11:04;;;;;;;77.60;37.37;;;5.80;99.90;;;;;;5053082;28;20661;-56
2022/01/25 09:13:32;;;;;;;73.67;36.13;;;5.70;99.90;;;;;;5056956;28;20214;-56
2022/01/25 09:15:59;;;;;;;74.40;36.30;;;5.70;99.90;;;;;;5056458;28;20207;-57
2022/01/25 09:18:27;;;;;;;75.33;36.93;;;5.70;99.90;;;;;;5055852;28;20716;-57
2022/01/25 09:20:55;;;;;;;70.83;35.50;;;5.80;99.90;;;;;;5038436;28;20648;-57
2022/01/25 09:23:23;;;;;;;67.43;33.87;;;5.70;99.90;;;;;;5055960;28;20280;-57
2022/01/25 09:25:50;;;;;;;69.50;33.97;;;5.70;99.90;;;;;;5056416;28;20238;-58
2022/01/25 09:28:18;;;;;;;69.37;35.93;;;5.80;99.90;;;;;;5035681;28;20203;-56
2022/01/25 09:30:45;;;;;;;66.67;33.87;;;5.80;99.90;;;;;;5061103;28;20221;-60
2022/01/25 09:33:16;;;;;;;68.57;34.60;;;5.70;99.90;;;;;;5061163;28;20237;-56
2022/01/25 09:35:44;;;;;;;63.50;33.87;;;5.50;99.90;;;;;;5058317;28;20214;-58
2022/01/25 09:38:11;;;;;;;73.47;35.47;;;5.60;99.90;;;;;;5059580;28;20669;-55
2022/01/25 09:40:38;;;;;;;66.20;34.77;;;5.40;99.90;;;;;;5051291;28;20233;-58
2022/01/25 09:43:06;;;;;;;69.70;32.93;;;5.40;99.90;;;;;;5059031;28;20705;-58
2022/01/25 09:45:34;;;;;;;70.63;34.63;;;5.30;99.90;;;;;;5055822;28;21336;-57
2022/01/25 09:48:03;;;;;;;65.73;32.67;;;5.40;99.90;;;;;;5059597;28;20221;-57
2022/01/25 09:50:35;;;;;;;70.33;35.47;;;5.50;99.90;;;;;;5061330;28;20600;-58
2022/01/25 09:53:04;;;;;;;67.60;33.40;;;5.50;99.90;;;;;;5047289;28;20661;-57
2022/01/25 09:55:35;;;;;;;64.90;33.77;;;5.30;99.90;;;;;;5047192;28;20843;-56
2022/01/25 09:58:05;;;;;;;69.33;37.03;;;5.30;99.90;;;;;;5073494;28;20197;-57
2022/01/25 10:00:33;;;;;;;68.33;36.00;;;5.40;99.90;;;;;;5084630;28;20298;-59
2022/01/25 10:05:37;;;;;;;67.70;34.20;;;5.50;99.90;;;;;;5075165;28;20208;-57
2022/01/25 10:08:05;;;;;;;66.27;33.60;;;5.60;99.90;;;;;;5061130;28;20372;-57
2022/01/25 10:10:35;;;;;;;63.27;34.20;;;5.70;99.90;;;;;;5084342;28;20251;-57
2022/01/25 10:13:11;;;;;;;67.50;34.10;;;5.70;99.90;;;;;;5076900;28;20751;-58
2022/01/25 10:15:39;;;;;;;65.83;35.00;;;5.70;99.90;;;;;;5072026;28;20632;-56
2022/01/25 10:18:20;;;;;;;67.70;34.20;;;5.60;99.90;;;;;;5075355;28;20211;-58
2022/01/25 10:20:49;;;;;;;71.30;34.30;;;5.70;99.90;;;;;;5074167;28;20327;-56
2022/01/25 10:23:22;;;;;;;67.93;34.73;;;5.80;99.90;;;;;;5077838;28;20296;-55
2022/01/25 10:25:50;;;;;;;59.47;31.67;;;5.70;99.90;;;;;;5073879;28;20266;-58
2022/01/25 10:28:28;;;;;;;65.43;33.97;;;5.80;99.90;;;;;;5053506;28;20976;-58
2022/01/25 10:30:59;;;;;;;61.83;32.10;;;5.70;99.90;;;;;;5073755;28;20549;-59
2022/01/25 10:33:33;;;;;;;63.10;33.50;;;5.80;99.90;;;;;;5061630;28;20747;-58
2022/01/25 10:36:11;;;;;;;62.03;31.57;;;5.60;99.90;;;;;;5075391;28;20672;-56
2022/01/25 10:38:40;;;;;;;65.50;34.10;;;5.60;99.90;;;;;;5072784;28;20196;-57
2022/01/25 10:41:11;;;;;;;58.40;32.17;;;5.60;99.90;;;;;;5078467;28;20213;-57
2022/01/25 10:43:39;;;;;;;65.97;33.37;;;5.70;99.90;;;;;;5073093;28;20918;-58
2022/01/25 10:46:09;;;;;;;59.97;32.73;;;5.60;99.90;;;;;;5075878;28;20858;-58
2022/01/25 10:48:38;;;;;;;64.23;34.20;;;5.70;99.90;;;;;;5059691;28;20300;-56
2022/01/25 10:51:26;;;;;;;63.70;33.17;;;5.80;99.90;;;;;;5063037;28;20204;-57
2022/01/25 10:53:58;;;;;;;59.23;33.87;;;5.70;99.90;;;;;;5076720;28;20327;-57
2022/01/25 10:56:25;;;;;;;61.03;32.23;;;5.60;99.90;;;;;;5068265;28;20404;-57
2022/01/25 10:59:01;;;;;;;62.97;34.80;;;5.70;99.90;;;;;;5064896;28;20231;-57
2022/01/25 11:01:40;;;;;;;66.07;34.37;;;5.90;99.90;;;;;;5072631;28;20212;-57
2022/01/25 11:04:10;;;;;;;59.43;31.67;;;6.00;99.90;;;;;;5064539;28;20487;-57
2022/01/25 11:06:37;;;;;;;60.77;33.23;;;5.90;99.90;;;;;;5043331;28;20205;-56
2022/01/25 11:09:07;;;;;;;61.27;34.03;;;5.80;99.90;;;;;;5067978;28;20262;-58
2022/01/25 11:11:44;;;;;;;55.60;30.57;;;5.60;99.90;;;;;;5078839;28;20433;-61
2022/01/25 11:16:58;;;;;;;56.80;31.10;;;5.90;99.90;;;;;;5077028;28;20644;-57
2022/01/25 11:19:25;;;;;;;62.33;31.83;;;5.70;99.90;;;;;;5074960;28;20236;-58
2022/01/25 11:21:54;;;;;;;61.00;31.23;;;5.20;99.90;;;;;;5057452;28;20203;-61
2022/01/25 11:24:23;;;;;;;58.00;31.67;;;5.50;99.90;;;;;;5062006;28;20248;-57
2022/01/25 11:26:51;;;;;;;55.57;29.83;;;5.40;99.90;;;;;;5073132;28;20202;-57
2022/01/25 11:29:18;;;;;;;60.60;31.30;;;5.50;99.90;;;;;;5072973;28;20660;-57
2022/01/25 11:32:00;;;;;;;59.33;33.20;;;5.60;99.90;;;;;;5079364;28;20602;-56
2022/01/25 11:34:30;;;;;;;59.33;29.67;;;5.70;99.90;;;;;;5056784;28;20219;-58
2022/01/25 11:37:02;;;;;;;59.47;32.60;;;5.80;99.90;;;;;;5076246;28;20231;-56
2022/01/25 11:39:30;;;;;;;59.83;32.00;;;5.80;99.90;;;;;;5074924;28;20225;-57
2022/01/25 11:42:09;;;;;;;55.07;31.27;;;5.80;99.90;;;;;;5075375;28;20566;-56
2022/01/25 11:44:48;;;;;;;64.27;31.63;;;5.90;99.90;;;;;;5074825;28;20660;-56
2022/01/25 11:47:17;;;;;;;56.00;30.97;;;5.70;99.90;;;;;;5074650;28;20596;-57
2022/01/25 11:49:56;;;;;;;58.70;30.27;;;5.70;99.90;;;;;;5073960;28;20709;-58
2022/01/25 11:52:26;;;;;;;57.20;29.57;;;5.70;99.90;;;;;;5069474;28;20675;-58
2022/01/25 11:55:14;;;;;;;60.30;30.90;;;5.90;99.90;;;;;;5062092;28;20313;-57
2022/01/25 11:57:51;;;;;;;61.10;31.63;;;6.00;99.90;;;;;;5066602;28;20234;-57
2022/01/25 12:00:22;;;;;;;56.60;31.50;;;5.70;99.90;;;;;;5070720;28;20224;-58
2022/01/25 12:02:50;;;;;;;56.23;31.53;;;5.60;99.90;;;;;;5068359;28;20352;-58
2022/01/25 12:05:25;;;;;;;61.83;32.17;;;5.70;99.90;;;;;;5069310;28;20692;-58
2022/01/25 12:08:04;;;;;;;59.30;31.30;;;5.90;99.90;;;;;;5070707;28;20253;-58
2022/01/25 12:10:41;;;;;;;55.43;30.57;;;5.80;99.90;;;;;;5072808;28;20224;-57
2022/01/25 12:13:13;;;;;;;55.20;30.27;;;6.00;99.90;;;;;;5070037;28;20292;-58
2022/01/25 12:15:41;;;;;;;52.93;28.57;;;6.00;99.90;;;;;;5073474;28;20729;-58
2022/01/25 12:18:30;;;;;;;59.10;29.90;;;6.00;99.90;;;;;;5073787;28;20225;-57
2022/01/25 12:20:56;;;;;;;54.10;29.87;;;5.90;99.90;;;;;;5066527;28;20198;-58
2022/01/25 12:23:43;;;;;;;59.80;31.73;;;5.80;99.90;;;;;;5071745;28;20722;-57
2022/01/25 12:26:15;;;;;;;54.40;30.70;;;5.80;99.90;;;;;;5069837;28;20283;-58
2022/01/25 12:28:50;;;;;;;58.40;29.10;;;5.90;99.90;;;;;;5073305;28;20667;-55
2022/01/25 12:31:17;;;;;;;53.57;29.20;;;5.90;99.90;;;;;;5052796;28;20351;-57
2022/01/25 12:33:46;;;;;;;57.77;30.57;;;5.80;99.90;;;;;;5053053;28;21865;-57
2022/01/25 12:36:13;;;;;;;56.50;31.60;;;5.90;99.90;;;;;;5071299;28;20696;-56
2022/01/25 12:38:47;;;;;;;57.13;31.17;;;6.00;99.90;;;;;;5067528;28;20238;-56
2022/01/25 12:41:16;;;;;;;61.40;30.50;;;6.10;99.90;;;;;;5072400;28;20248;-58
2022/01/25 12:43:48;;;;;;;55.47;29.67;;;6.00;99.90;;;;;;5069483;28;20229;-59
2022/01/25 12:46:21;;;;;;;59.10;30.33;;;6.10;99.90;;;;;;5069283;28;20621;-58
2022/01/25 12:48:52;;;;;;;56.80;29.50;;;5.90;99.90;;;;;;5073916;28;20219;-58
2022/01/25 12:51:28;;;;;;;55.93;30.30;;;5.80;99.90;;;;;;5068582;28;20208;-58
2022/01/25 12:53:57;;;;;;;59.63;32.03;;;5.80;99.90;;;;;;5071714;28;20593;-57
2022/01/25 12:56:34;;;;;;;59.33;31.90;;;5.90;99.90;;;;;;5070461;28;20230;-57
2022/01/25 12:59:13;;;;;;;53.53;28.60;;;6.00;99.90;;;;;;5067235;28;20212;-58
2022/01/25 13:01:44;;;;;;;57.97;29.63;;;6.00;99.90;;;;;;5074468;28;20202;-56
2022/01/25 13:04:11;;;;;;;53.73;29.50;;;5.90;99.90;;;;;;5075439;28;20686;-57
2022/01/25 13:06:43;;;;;;;56.23;28.43;;;5.80;99.90;;;;;;5074976;28;20205;-56
2022/01/25 13:09:42;;;;;;;62.40;30.27;;;5.80;99.90;;;;;;5071723;28;21061;-57
2022/01/25 13:17:13;;;;;;;57.30;29.60;;;5.70;99.90;;;;;;5076761;28;20193;-57
2022/01/25 13:20:00;;;;;;;54.10;28.37;;;5.80;99.90;;;;;;5073848;28;20195;-57
2022/01/25 13:22:32;;;;;;;58.07;30.20;;;5.80;99.90;;;;;;5070959;28;20212;-56
2022/01/25 13:27:47;;;;;;;55.33;29.23;;;5.90;99.90;;;;;;5074306;28;20202;-55
2022/01/25 13:33:02;;;;;;;55.30;30.20;;;5.80;99.90;;;;;;5069756;28;20192;-56
2022/01/25 13:35:36;;;;;;;54.73;29.77;;;5.70;99.90;;;;;;5073819;28;20333;-56
2022/01/25 13:38:11;;;;;;;56.73;30.60;;;5.80;99.90;;;;;;5068140;28;20283;-55
2022/01/25 13:41:04;;;;;;;64.10;32.43;;;5.90;99.90;;;;;;5068327;28;20204;-56
2022/01/25 13:46:13;;;;;;;63.07;30.60;;;5.90;99.90;;;;;;5066983;28;20660;-58
2022/01/25 13:48:41;;;;;;;62.63;31.73;;;6.00;99.90;;;;;;5068179;28;20216;-57
2022/01/25 13:51:11;;;;;;;56.77;30.93;;;5.90;99.90;;;;;;5073503;28;20273;-58
2022/01/25 13:53:39;;;;;;;58.83;29.87;;;5.90;99.90;;;;;;5072046;28;20237;-56
2022/01/25 13:56:13;;;;;;;56.70;29.20;;;5.90;99.90;;;;;;5076251;28;20203;-58
2022/01/25 13:58:45;;;;;;;58.23;29.50;;;5.80;99.90;;;;;;5075197;28;20379;-56
2022/01/25 14:01:13;;;;;;;60.13;29.03;;;5.80;99.90;;;;;;5076129;28;20203;-58
2022/01/25 14:03:51;;;;;;;56.43;27.77;;;5.90;99.90;;;;;;5075332;28;20208;-56
2022/01/25 14:06:42;;;;;;;55.83;29.03;;;5.80;99.90;;;;;;5069714;28;20340;-58
2022/01/25 14:09:20;;;;;;;56.00;29.97;;;5.80;99.90;;;;;;5070902;28;20218;-58
2022/01/25 14:23:34;;;;;;;58.17;28.47;;;6.00;99.90;;;;;;5069784;28;20218;-58
2022/01/25 14:25:48;;;;;;;57.00;30.67;;;6.00;99.90;;;;;;5057990;28;20207;-57
2022/01/25 14:28:24;;;;;;;51.87;28.50;;;6.10;99.90;;;;;;5072874;28;20612;-59
2022/01/25 14:30:53;;;;;;;58.17;31.07;;;6.00;99.90;;;;;;5073321;28;20205;-58
2022/01/25 14:33:23;;;;;;;58.73;29.90;;;5.90;99.90;;;;;;5053439;28;20307;-58
2022/01/25 14:36:05;;;;;;;58.90;30.20;;;6.00;99.90;;;;;;5067593;28;23045;-56
2022/01/25 14:38:36;;;;;;;59.57;30.57;;;6.00;99.90;;;;;;5070441;28;20195;-58
2022/01/25 14:41:08;;;;;;;58.57;30.40;;;6.00;99.90;;;;;;5071538;28;20204;-59
2022/01/25 14:43:52;;;;;;;55.70;29.27;;;6.00;99.90;;;;;;5067607;28;20306;-58
2022/01/25 14:46:27;;;;;;;55.20;28.07;;;6.00;99.90;;;;;;5059915;28;20629;-61
2022/01/25 14:49:13;;;;;;;51.70;28.50;;;6.10;99.90;;;;;;5074195;28;20194;-58
2022/01/25 14:51:42;;;;;;;55.27;30.30;;;6.10;99.90;;;;;;5078324;28;20194;-58
2022/01/25 14:54:15;;;;;;;60.53;30.13;;;6.10;99.90;;;;;;5073796;28;20342;-56
2022/01/25 14:56:50;;;;;;;55.13;30.03;;;5.90;99.90;;;;;;5073755;28;20708;-59
2022/01/25 14:59:46;;;;;;;58.07;29.40;;;5.80;99.90;;;;;;5067451;28;20202;-58
2022/01/25 15:02:23;;;;;;;57.63;29.93;;;5.90;99.90;;;;;;5063281;28;20212;-58
2022/01/25 15:04:55;;;;;;;58.07;30.30;;;5.60;99.90;;;;;;5069577;28;20210;-58
2022/01/25 15:07:25;;;;;;;60.97;31.27;;;5.80;99.90;;;;;;5052663;28;20689;-58
2022/01/25 15:09:58;;;;;;;54.10;29.90;;;6.10;99.90;;;;;;5072376;28;20379;-58
2022/01/25 15:12:35;;;;;;;56.03;29.43;;;6.10;99.90;;;;;;5052436;28;20209;-58
2022/01/25 15:17:31;;;;;;;57.23;29.53;;;6.10;99.90;;;;;;5056798;28;20202;-57